sensor_id;sensor_type;location;lat;lon;timestamp;temperature;humidity
72646;DHT22;60687;53.876;10.674;2023-04-25T00:04:11;9.00;99.90
72646;DHT22;60687;53.876;10.674;2023-04-25T00:14:15;9.10;99.90
72646;DHT22;60687;53.876;10.674;2023-04-25T00:24:17;9.00;99.90
72646;DHT22;60687;53.876;10.674;2023-04-25T00:34:22;9.00;99.90
72646;DHT22;60687;53.876;10.674;2023-04-25T00:44:24;9.00;99.90
72646;DHT22;60687;53.876;10.674;2023-04-25T00:54:29;9.00;99.90
72646;DHT22;60687;53.876;10.674;2023-04-25T01:04:32;8.90;99.90
72646;DHT22;60687;53.876;10.674;2023-04-25T01:14:36;8.80;99.90
72646;DHT22;60687;53.876;10.674;2023-04-25T01:24:41;8.70;99.90
72646;DHT22;60687;53.876;10.674;2023-04-25T01:34:44;8.60;99.90
72646;DHT22;60687;53.876;10.674;2023-04-25T01:44:48;8.60;99.90
72646;DHT22;60687;53.876;10.674;2023-04-25T01:54:51;8.50;99.90
72646;DHT22;60687;53.876;10.674;2023-04-25T02:04:55;8.40;99.90
72646;DHT22;60687;53.876;10.674;2023-04-25T02:15:00;8.30;99.90
72646;DHT22;60687;53.876;10.674;2023-04-25T02:25:16;8.20;99.90
72646;DHT22;60687;53.876;10.674;2023-04-25T02:35:21;8.10;99.90
72646;DHT22;60687;53.876;10.674;2023-04-25T02:45:25;8.00;99.00
72646;DHT22;60687;53.876;10.674;2023-04-25T02:55:27;7.90;98.50
72646;DHT22;60687;53.876;10.674;2023-04-25T03:05:32;7.80;97.20
72646;DHT22;60687;53.876;10.674;2023-04-25T03:15:35;7.80;97.00
72646;DHT22;60687;53.876;10.674;2023-04-25T03:25:39;7.70;97.70
72646;DHT22;60687;53.876;10.674;2023-04-25T03:35:41;7.60;97.30
72646;DHT22;60687;53.876;10.674;2023-04-25T03:45:46;7.50;96.70
72646;DHT22;60687;53.876;10.674;2023-04-25T03:55:49;7.30;95.90
72646;DHT22;60687;53.876;10.674;2023-04-25T04:05:53;7.30;95.30
72646;DHT22;60687;53.876;10.674;2023-04-25T04:15:55;7.20;94.50
72646;DHT22;60687;53.876;10.674;2023-04-25T04:26:00;7.10;94.70
72646;DHT22;60687;53.876;10.674;2023-04-25T04:36:14;7.10;93.80
72646;DHT22;60687;53.876;10.674;2023-04-25T04:46:18;7.00;93.00
72646;DHT22;60687;53.876;10.674;2023-04-25T04:56:42;7.00;92.60
72646;DHT22;60687;53.876;10.674;2023-04-25T05:07:21;7.00;92.70
72646;DHT22;60687;53.876;10.674;2023-04-25T05:17:50;7.00;92.40
72646;DHT22;60687;53.876;10.674;2023-04-25T05:28:07;7.00;91.00
72646;DHT22;60687;53.876;10.674;2023-04-25T05:38:24;7.00;89.10
72646;DHT22;60687;53.876;10.674;2023-04-25T05:49:03;7.10;90.60
72646;DHT22;60687;53.876;10.674;2023-04-25T05:59:32;7.20;88.10
72646;DHT22;60687;53.876;10.674;2023-04-25T06:09:36;7.20;86.60
72646;DHT22;60687;53.876;10.674;2023-04-25T06:19:40;7.20;86.90
72646;DHT22;60687;53.876;10.674;2023-04-25T06:29:44;7.30;88.70
72646;DHT22;60687;53.876;10.674;2023-04-25T06:39:47;7.30;87.60
72646;DHT22;60687;53.876;10.674;2023-04-25T06:49:52;7.50;84.40
72646;DHT22;60687;53.876;10.674;2023-04-25T06:59:55;7.50;84.30
72646;DHT22;60687;53.876;10.674;2023-04-25T07:09:59;7.60;83.10
72646;DHT22;60687;53.876;10.674;2023-04-25T07:20:04;7.70;84.00
72646;DHT22;60687;53.876;10.674;2023-04-25T07:30:12;7.80;84.80
72646;DHT22;60687;53.876;10.674;2023-04-25T07:40:14;7.90;82.20
72646;DHT22;60687;53.876;10.674;2023-04-25T07:50:23;8.00;83.10
72646;DHT22;60687;53.876;10.674;2023-04-25T08:00:25;8.20;83.10
72646;DHT22;60687;53.876;10.674;2023-04-25T08:10:44;8.30;80.40
72646;DHT22;60687;53.876;10.674;2023-04-25T08:20:50;8.30;75.70
72646;DHT22;60687;53.876;10.674;2023-04-25T08:30:54;8.50;78.40
72646;DHT22;60687;53.876;10.674;2023-04-25T08:40:59;8.80;77.50
72646;DHT22;60687;53.876;10.674;2023-04-25T08:51:07;9.00;66.10
72646;DHT22;60687;53.876;10.674;2023-04-25T09:01:09;9.20;65.50
72646;DHT22;60687;53.876;10.674;2023-04-25T09:11:21;9.00;64.80
72646;DHT22;60687;53.876;10.674;2023-04-25T09:21:27;9.10;65.80
72646;DHT22;60687;53.876;10.674;2023-04-25T09:31:33;9.10;62.50
72646;DHT22;60687;53.876;10.674;2023-04-25T09:41:38;9.00;65.50
72646;DHT22;60687;53.876;10.674;2023-04-25T09:51:54;8.90;65.30
72646;DHT22;60687;53.876;10.674;2023-04-25T10:01:57;8.90;67.70
72646;DHT22;60687;53.876;10.674;2023-04-25T10:12:10;9.20;65.30
72646;DHT22;60687;53.876;10.674;2023-04-25T10:22:17;9.70;66.10
72646;DHT22;60687;53.876;10.674;2023-04-25T10:32:21;9.50;62.80
72646;DHT22;60687;53.876;10.674;2023-04-25T10:42:24;8.90;67.40
72646;DHT22;60687;53.876;10.674;2023-04-25T10:52:32;8.80;71.00
72646;DHT22;60687;53.876;10.674;2023-04-25T11:02:37;9.00;71.60
72646;DHT22;60687;53.876;10.674;2023-04-25T11:12:41;9.10;70.80
72646;DHT22;60687;53.876;10.674;2023-04-25T11:22:45;9.20;74.40
72646;DHT22;60687;53.876;10.674;2023-04-25T11:32:49;9.70;74.10
72646;DHT22;60687;53.876;10.674;2023-04-25T11:42:52;10.70;69.10
72646;DHT22;60687;53.876;10.674;2023-04-25T11:52:56;10.70;58.60
72646;DHT22;60687;53.876;10.674;2023-04-25T12:02:59;9.90;67.20
72646;DHT22;60687;53.876;10.674;2023-04-25T12:13:18;9.40;69.60
72646;DHT22;60687;53.876;10.674;2023-04-25T12:23:25;9.30;65.50
72646;DHT22;60687;53.876;10.674;2023-04-25T12:33:33;9.40;64.60
72646;DHT22;60687;53.876;10.674;2023-04-25T12:43:35;9.60;65.00
72646;DHT22;60687;53.876;10.674;2023-04-25T12:53:39;9.80;63.30
72646;DHT22;60687;53.876;10.674;2023-04-25T13:03:41;9.00;82.90
72646;DHT22;60687;53.876;10.674;2023-04-25T13:13:45;8.70;81.80
72646;DHT22;60687;53.876;10.674;2023-04-25T13:23:47;8.90;81.80
72646;DHT22;60687;53.876;10.674;2023-04-25T13:33:51;9.20;71.40
72646;DHT22;60687;53.876;10.674;2023-04-25T13:43:53;9.20;68.50
72646;DHT22;60687;53.876;10.674;2023-04-25T13:53:56;9.50;65.90
72646;DHT22;60687;53.876;10.674;2023-04-25T14:03:59;9.50;62.90
72646;DHT22;60687;53.876;10.674;2023-04-25T14:14:06;9.60;61.60
72646;DHT22;60687;53.876;10.674;2023-04-25T14:24:23;9.70;59.90
72646;DHT22;60687;53.876;10.674;2023-04-25T14:34:28;9.60;61.50
72646;DHT22;60687;53.876;10.674;2023-04-25T14:44:45;9.60;63.00
72646;DHT22;60687;53.876;10.674;2023-04-25T14:54:50;9.50;61.90
72646;DHT22;60687;53.876;10.674;2023-04-25T15:04:53;9.40;60.60
72646;DHT22;60687;53.876;10.674;2023-04-25T15:14:57;9.50;63.80
72646;DHT22;60687;53.876;10.674;2023-04-25T15:24:59;9.50;64.70
72646;DHT22;60687;53.876;10.674;2023-04-25T15:35:05;9.50;65.20
72646;DHT22;60687;53.876;10.674;2023-04-25T15:45:08;9.40;66.10
72646;DHT22;60687;53.876;10.674;2023-04-25T15:55:13;9.40;67.50
72646;DHT22;60687;53.876;10.674;2023-04-25T16:05:19;9.30;67.60
72646;DHT22;60687;53.876;10.674;2023-04-25T16:15:24;9.00;71.90
72646;DHT22;60687;53.876;10.674;2023-04-25T16:25:26;8.90;78.40
72646;DHT22;60687;53.876;10.674;2023-04-25T16:35:30;8.90;76.90
72646;DHT22;60687;53.876;10.674;2023-04-25T16:45:32;8.40;79.60
72646;DHT22;60687;53.876;10.674;2023-04-25T16:55:36;8.10;72.60
72646;DHT22;60687;53.876;10.674;2023-04-25T17:05:38;8.10;71.90
72646;DHT22;60687;53.876;10.674;2023-04-25T17:15:42;8.10;72.80
72646;DHT22;60687;53.876;10.674;2023-04-25T17:25:44;8.10;73.90
72646;DHT22;60687;53.876;10.674;2023-04-25T17:35:51;8.20;75.00
72646;DHT22;60687;53.876;10.674;2023-04-25T17:45:54;8.10;74.90
72646;DHT22;60687;53.876;10.674;2023-04-25T17:55:58;8.00;76.40
72646;DHT22;60687;53.876;10.674;2023-04-25T18:06:04;7.90;74.80
72646;DHT22;60687;53.876;10.674;2023-04-25T18:16:10;7.80;70.90
72646;DHT22;60687;53.876;10.674;2023-04-25T18:26:12;7.70;70.40
72646;DHT22;60687;53.876;10.674;2023-04-25T18:36:17;7.60;69.60
72646;DHT22;60687;53.876;10.674;2023-04-25T18:46:19;7.50;69.30
72646;DHT22;60687;53.876;10.674;2023-04-25T18:56:26;7.40;70.10
72646;DHT22;60687;53.876;10.674;2023-04-25T19:06:30;7.40;71.40
72646;DHT22;60687;53.876;10.674;2023-04-25T19:16:38;7.30;75.90
72646;DHT22;60687;53.876;10.674;2023-04-25T19:26:41;7.10;81.90
72646;DHT22;60687;53.876;10.674;2023-04-25T19:36:45;7.10;86.00
72646;DHT22;60687;53.876;10.674;2023-04-25T19:46:52;7.00;86.10
72646;DHT22;60687;53.876;10.674;2023-04-25T19:56:58;7.00;90.00
72646;DHT22;60687;53.876;10.674;2023-04-25T20:07:00;6.90;85.90
72646;DHT22;60687;53.876;10.674;2023-04-25T20:17:05;6.80;85.10
72646;DHT22;60687;53.876;10.674;2023-04-25T20:27:07;6.80;83.20
72646;DHT22;60687;53.876;10.674;2023-04-25T20:37:10;6.70;83.60
72646;DHT22;60687;53.876;10.674;2023-04-25T20:47:13;6.60;84.00
72646;DHT22;60687;53.876;10.674;2023-04-25T20:57:18;6.60;85.50
72646;DHT22;60687;53.876;10.674;2023-04-25T21:07:21;6.50;88.30
72646;DHT22;60687;53.876;10.674;2023-04-25T21:17:25;6.40;90.50
72646;DHT22;60687;53.876;10.674;2023-04-25T21:27:28;6.30;91.10
72646;DHT22;60687;53.876;10.674;2023-04-25T21:37:32;6.30;90.90
72646;DHT22;60687;53.876;10.674;2023-04-25T21:47:35;6.20;91.10
72646;DHT22;60687;53.876;10.674;2023-04-25T21:57:40;6.10;90.60
72646;DHT22;60687;53.876;10.674;2023-04-25T22:07:42;6.10;90.80
72646;DHT22;60687;53.876;10.674;2023-04-25T22:17:46;6.10;90.40
72646;DHT22;60687;53.876;10.674;2023-04-25T22:27:49;6.00;90.90
72646;DHT22;60687;53.876;10.674;2023-04-25T22:37:55;5.90;91.00
72646;DHT22;60687;53.876;10.674;2023-04-25T22:47:58;5.80;91.20
72646;DHT22;60687;53.876;10.674;2023-04-25T22:58:03;5.70;91.10
72646;DHT22;60687;53.876;10.674;2023-04-25T23:08:07;5.60;91.40
72646;DHT22;60687;53.876;10.674;2023-04-25T23:18:12;5.50;92.30
72646;DHT22;60687;53.876;10.674;2023-04-25T23:28:15;5.40;91.90
72646;DHT22;60687;53.876;10.674;2023-04-25T23:38:19;5.30;92.50
72646;DHT22;60687;53.876;10.674;2023-04-25T23:48:24;5.30;93.20
72646;DHT22;60687;53.876;10.674;2023-04-25T23:58:27;5.30;93.60
